sensor_id;sensor_type;location;lat;lon;timestamp;P1;durP1;ratioP1;P2;durP2;ratioP2
31073;SDS011;17730;53.552;9.940;2022-11-15T00:00:24;62.40;;;32.75;;
31073;SDS011;17730;53.552;9.940;2022-11-15T00:02:51;65.32;;;32.67;;
31073;SDS011;17730;53.552;9.940;2022-11-15T00:05:17;60.10;;;31.15;;
31073;SDS011;17730;53.552;9.940;2022-11-15T00:07:43;58.13;;;31.45;;
31073;SDS011;17730;53.552;9.940;2022-11-15T00:10:09;63.53;;;31.85;;
31073;SDS011;17730;53.552;9.940;2022-11-15T00:12:34;59.13;;;30.60;;
31073;SDS011;17730;53.552;9.940;2022-11-15T00:15:00;62.33;;;32.72;;
31073;SDS011;17730;53.552;9.940;2022-11-15T00:17:25;60.72;;;32.33;;
31073;SDS011;17730;53.552;9.940;2022-11-15T00:19:51;61.05;;;31.45;;
31073;SDS011;17730;53.552;9.940;2022-11-15T00:22:17;68.15;;;32.75;;
31073;SDS011;17730;53.552;9.940;2022-11-15T00:24:42;62.53;;;32.90;;
31073;SDS011;17730;53.552;9.940;2022-11-15T00:27:08;61.80;;;31.42;;
31073;SDS011;17730;53.552;9.940;2022-11-15T00:29:34;62.75;;;31.60;;
31073;SDS011;17730;53.552;9.940;2022-11-15T00:31:59;58.55;;;30.42;;
31073;SDS011;17730;53.552;9.940;2022-11-15T00:34:25;64.35;;;32.10;;
31073;SDS011;17730;53.552;9.940;2022-11-15T00:36:50;61.55;;;31.08;;
31073;SDS011;17730;53.552;9.940;2022-11-15T00:39:16;58.97;;;30.80;;
31073;SDS011;17730;53.552;9.940;2022-11-15T00:41:42;60.13;;;31.40;;
31073;SDS011;17730;53.552;9.940;2022-11-15T00:44:07;62.85;;;31.10;;
31073;SDS011;17730;53.552;9.940;2022-11-15T00:46:33;64.82;;;31.38;;
31073;SDS011;17730;53.552;9.940;2022-11-15T00:48:59;56.95;;;30.88;;
31073;SDS011;17730;53.552;9.940;2022-11-15T00:51:24;59.00;;;30.45;;
31073;SDS011;17730;53.552;9.940;2022-11-15T00:53:50;53.80;;;29.00;;
31073;SDS011;17730;53.552;9.940;2022-11-15T00:56:15;62.53;;;31.92;;
31073;SDS011;17730;53.552;9.940;2022-11-15T00:58:41;61.67;;;31.67;;
31073;SDS011;17730;53.552;9.940;2022-11-15T01:01:07;60.15;;;31.85;;
31073;SDS011;17730;53.552;9.940;2022-11-15T01:03:38;60.95;;;31.33;;
31073;SDS011;17730;53.552;9.940;2022-11-15T01:06:04;57.03;;;29.40;;
31073;SDS011;17730;53.552;9.940;2022-11-15T01:08:30;65.55;;;30.83;;
31073;SDS011;17730;53.552;9.940;2022-11-15T01:11:03;58.13;;;30.45;;
31073;SDS011;17730;53.552;9.940;2022-11-15T01:13:31;53.33;;;29.30;;
31073;SDS011;17730;53.552;9.940;2022-11-15T01:15:58;60.05;;;30.88;;
31073;SDS011;17730;53.552;9.940;2022-11-15T01:18:24;62.63;;;31.35;;
31073;SDS011;17730;53.552;9.940;2022-11-15T01:20:50;61.90;;;30.13;;
31073;SDS011;17730;53.552;9.940;2022-11-15T01:23:15;56.78;;;30.17;;
31073;SDS011;17730;53.552;9.940;2022-11-15T01:25:41;58.20;;;30.55;;
31073;SDS011;17730;53.552;9.940;2022-11-15T01:28:06;58.72;;;30.75;;
31073;SDS011;17730;53.552;9.940;2022-11-15T01:30:32;57.47;;;30.23;;
31073;SDS011;17730;53.552;9.940;2022-11-15T01:32:58;58.78;;;30.70;;
31073;SDS011;17730;53.552;9.940;2022-11-15T01:35:23;63.85;;;31.33;;
31073;SDS011;17730;53.552;9.940;2022-11-15T01:37:49;56.88;;;30.75;;
31073;SDS011;17730;53.552;9.940;2022-11-15T01:40:14;63.25;;;30.00;;
31073;SDS011;17730;53.552;9.940;2022-11-15T01:42:40;67.03;;;31.02;;
31073;SDS011;17730;53.552;9.940;2022-11-15T01:45:10;61.90;;;32.17;;
31073;SDS011;17730;53.552;9.940;2022-11-15T01:47:40;66.90;;;34.00;;
31073;SDS011;17730;53.552;9.940;2022-11-15T01:50:14;58.47;;;31.40;;
31073;SDS011;17730;53.552;9.940;2022-11-15T01:52:43;66.28;;;32.03;;
31073;SDS011;17730;53.552;9.940;2022-11-15T01:57:48;64.70;;;33.13;;
31073;SDS011;17730;53.552;9.940;2022-11-15T02:00:16;63.80;;;32.60;;
31073;SDS011;17730;53.552;9.940;2022-11-15T02:02:41;64.45;;;31.80;;
31073;SDS011;17730;53.552;9.940;2022-11-15T02:05:08;60.05;;;31.10;;
31073;SDS011;17730;53.552;9.940;2022-11-15T02:07:34;65.30;;;33.17;;
31073;SDS011;17730;53.552;9.940;2022-11-15T02:10:10;64.43;;;31.48;;
31073;SDS011;17730;53.552;9.940;2022-11-15T02:12:39;60.88;;;32.38;;
31073;SDS011;17730;53.552;9.940;2022-11-15T02:15:06;62.08;;;31.15;;
31073;SDS011;17730;53.552;9.940;2022-11-15T02:17:48;65.85;;;33.15;;
31073;SDS011;17730;53.552;9.940;2022-11-15T02:20:35;70.13;;;33.17;;
31073;SDS011;17730;53.552;9.940;2022-11-15T02:23:21;67.78;;;33.42;;
31073;SDS011;17730;53.552;9.940;2022-11-15T02:26:19;63.38;;;31.52;;
31073;SDS011;17730;53.552;9.940;2022-11-15T02:29:37;64.78;;;32.72;;
31073;SDS011;17730;53.552;9.940;2022-11-15T02:32:19;62.83;;;32.15;;
31073;SDS011;17730;53.552;9.940;2022-11-15T02:40:26;64.90;;;31.00;;
31073;SDS011;17730;53.552;9.940;2022-11-15T02:43:15;68.70;;;32.63;;
31073;SDS011;17730;53.552;9.940;2022-11-15T02:46:09;66.28;;;31.67;;
31073;SDS011;17730;53.552;9.940;2022-11-15T02:48:43;70.72;;;32.58;;
31073;SDS011;17730;53.552;9.940;2022-11-15T02:51:10;62.60;;;32.13;;
31073;SDS011;17730;53.552;9.940;2022-11-15T02:53:37;62.15;;;32.90;;
31073;SDS011;17730;53.552;9.940;2022-11-15T02:56:03;66.13;;;33.70;;
31073;SDS011;17730;53.552;9.940;2022-11-15T03:11:51;64.00;;;31.85;;
31073;SDS011;17730;53.552;9.940;2022-11-15T03:14:37;66.70;;;32.72;;
31073;SDS011;17730;53.552;9.940;2022-11-15T03:19:54;63.42;;;30.95;;
31073;SDS011;17730;53.552;9.940;2022-11-15T03:22:24;62.10;;;30.47;;
31073;SDS011;17730;53.552;9.940;2022-11-15T03:25:02;72.38;;;33.30;;
31073;SDS011;17730;53.552;9.940;2022-11-15T03:27:37;63.25;;;31.25;;
31073;SDS011;17730;53.552;9.940;2022-11-15T03:30:06;68.82;;;30.75;;
31073;SDS011;17730;53.552;9.940;2022-11-15T03:32:37;66.63;;;31.88;;
31073;SDS011;17730;53.552;9.940;2022-11-15T03:35:08;59.70;;;31.20;;
31073;SDS011;17730;53.552;9.940;2022-11-15T03:37:41;56.60;;;29.70;;
31073;SDS011;17730;53.552;9.940;2022-11-15T03:40:49;65.97;;;30.25;;
31073;SDS011;17730;53.552;9.940;2022-11-15T03:43:39;59.03;;;28.92;;
31073;SDS011;17730;53.552;9.940;2022-11-15T03:46:14;55.10;;;27.85;;
31073;SDS011;17730;53.552;9.940;2022-11-15T03:49:34;58.45;;;28.90;;
31073;SDS011;17730;53.552;9.940;2022-11-15T03:52:01;58.78;;;28.92;;
31073;SDS011;17730;53.552;9.940;2022-11-15T03:54:28;63.28;;;30.35;;
31073;SDS011;17730;53.552;9.940;2022-11-15T03:56:54;54.88;;;28.52;;
31073;SDS011;17730;53.552;9.940;2022-11-15T03:59:20;56.83;;;28.65;;
31073;SDS011;17730;53.552;9.940;2022-11-15T04:01:46;54.20;;;28.25;;
31073;SDS011;17730;53.552;9.940;2022-11-15T04:04:12;55.50;;;28.58;;
31073;SDS011;17730;53.552;9.940;2022-11-15T04:06:37;61.90;;;30.40;;
31073;SDS011;17730;53.552;9.940;2022-11-15T04:09:03;57.53;;;30.38;;
31073;SDS011;17730;53.552;9.940;2022-11-15T04:11:29;60.92;;;29.08;;
31073;SDS011;17730;53.552;9.940;2022-11-15T04:13:55;51.35;;;27.48;;
31073;SDS011;17730;53.552;9.940;2022-11-15T04:16:20;56.10;;;28.23;;
31073;SDS011;17730;53.552;9.940;2022-11-15T04:18:46;54.70;;;27.05;;
31073;SDS011;17730;53.552;9.940;2022-11-15T04:21:31;49.67;;;26.75;;
31073;SDS011;17730;53.552;9.940;2022-11-15T04:24:15;57.45;;;28.60;;
31073;SDS011;17730;53.552;9.940;2022-11-15T04:26:41;58.25;;;28.48;;
31073;SDS011;17730;53.552;9.940;2022-11-15T04:29:07;52.72;;;26.75;;
31073;SDS011;17730;53.552;9.940;2022-11-15T04:31:51;50.92;;;27.80;;
31073;SDS011;17730;53.552;9.940;2022-11-15T04:34:16;59.90;;;28.08;;
31073;SDS011;17730;53.552;9.940;2022-11-15T04:36:42;49.33;;;26.15;;
31073;SDS011;17730;53.552;9.940;2022-11-15T04:39:26;51.33;;;26.20;;
31073;SDS011;17730;53.552;9.940;2022-11-15T04:41:52;47.28;;;25.10;;
31073;SDS011;17730;53.552;9.940;2022-11-15T04:44:18;50.17;;;26.30;;
31073;SDS011;17730;53.552;9.940;2022-11-15T04:46:43;49.08;;;26.00;;
31073;SDS011;17730;53.552;9.940;2022-11-15T04:49:09;49.40;;;26.83;;
31073;SDS011;17730;53.552;9.940;2022-11-15T04:51:34;45.90;;;24.20;;
31073;SDS011;17730;53.552;9.940;2022-11-15T04:54:00;44.67;;;23.75;;
31073;SDS011;17730;53.552;9.940;2022-11-15T04:56:26;46.13;;;24.25;;
31073;SDS011;17730;53.552;9.940;2022-11-15T04:58:51;44.25;;;23.73;;
31073;SDS011;17730;53.552;9.940;2022-11-15T05:01:17;40.45;;;23.05;;
31073;SDS011;17730;53.552;9.940;2022-11-15T05:03:43;44.95;;;23.10;;
31073;SDS011;17730;53.552;9.940;2022-11-15T05:06:29;44.67;;;23.20;;
31073;SDS011;17730;53.552;9.940;2022-11-15T05:08:55;45.25;;;23.23;;
31073;SDS011;17730;53.552;9.940;2022-11-15T05:11:21;41.53;;;23.02;;
31073;SDS011;17730;53.552;9.940;2022-11-15T05:13:48;38.35;;;22.52;;
31073;SDS011;17730;53.552;9.940;2022-11-15T05:16:13;47.75;;;24.85;;
31073;SDS011;17730;53.552;9.940;2022-11-15T05:18:39;48.25;;;22.90;;
31073;SDS011;17730;53.552;9.940;2022-11-15T05:21:12;50.13;;;25.50;;
31073;SDS011;17730;53.552;9.940;2022-11-15T05:23:39;39.63;;;22.97;;
31073;SDS011;17730;53.552;9.940;2022-11-15T05:26:05;43.60;;;24.63;;
31073;SDS011;17730;53.552;9.940;2022-11-15T05:28:32;49.92;;;24.63;;
31073;SDS011;17730;53.552;9.940;2022-11-15T05:31:05;49.63;;;25.23;;
31073;SDS011;17730;53.552;9.940;2022-11-15T05:33:36;46.17;;;25.00;;
31073;SDS011;17730;53.552;9.940;2022-11-15T05:36:07;42.55;;;24.00;;
31073;SDS011;17730;53.552;9.940;2022-11-15T05:38:44;47.38;;;23.92;;
31073;SDS011;17730;53.552;9.940;2022-11-15T05:41:11;44.15;;;24.73;;
31073;SDS011;17730;53.552;9.940;2022-11-15T05:43:37;42.53;;;22.80;;
31073;SDS011;17730;53.552;9.940;2022-11-15T05:46:05;48.15;;;23.30;;
31073;SDS011;17730;53.552;9.940;2022-11-15T05:48:31;42.63;;;21.95;;
31073;SDS011;17730;53.552;9.940;2022-11-15T05:50:58;43.00;;;22.00;;
31073;SDS011;17730;53.552;9.940;2022-11-15T05:53:25;36.47;;;20.20;;
31073;SDS011;17730;53.552;9.940;2022-11-15T05:55:51;37.15;;;19.23;;
31073;SDS011;17730;53.552;9.940;2022-11-15T05:58:17;33.92;;;19.95;;
31073;SDS011;17730;53.552;9.940;2022-11-15T06:00:43;36.10;;;19.38;;
31073;SDS011;17730;53.552;9.940;2022-11-15T06:03:09;33.63;;;19.73;;
31073;SDS011;17730;53.552;9.940;2022-11-15T06:05:35;32.22;;;18.60;;
31073;SDS011;17730;53.552;9.940;2022-11-15T06:08:01;33.65;;;19.15;;
31073;SDS011;17730;53.552;9.940;2022-11-15T06:10:26;33.45;;;18.77;;
31073;SDS011;17730;53.552;9.940;2022-11-15T06:12:56;37.90;;;19.08;;
31073;SDS011;17730;53.552;9.940;2022-11-15T06:15:25;34.80;;;19.55;;
31073;SDS011;17730;53.552;9.940;2022-11-15T06:17:51;33.15;;;19.13;;
31073;SDS011;17730;53.552;9.940;2022-11-15T06:20:17;39.30;;;19.33;;
31073;SDS011;17730;53.552;9.940;2022-11-15T06:22:43;35.80;;;19.13;;
31073;SDS011;17730;53.552;9.940;2022-11-15T06:25:08;34.70;;;18.48;;
31073;SDS011;17730;53.552;9.940;2022-11-15T06:27:34;34.78;;;19.33;;
31073;SDS011;17730;53.552;9.940;2022-11-15T06:30:00;31.13;;;17.75;;
31073;SDS011;17730;53.552;9.940;2022-11-15T06:32:26;33.00;;;18.98;;
31073;SDS011;17730;53.552;9.940;2022-11-15T06:34:51;31.70;;;18.25;;
31073;SDS011;17730;53.552;9.940;2022-11-15T06:37:17;33.45;;;18.58;;
31073;SDS011;17730;53.552;9.940;2022-11-15T06:39:43;29.33;;;17.80;;
31073;SDS011;17730;53.552;9.940;2022-11-15T06:42:08;34.67;;;17.98;;
31073;SDS011;17730;53.552;9.940;2022-11-15T06:44:34;35.78;;;19.58;;
31073;SDS011;17730;53.552;9.940;2022-11-15T06:46:59;39.22;;;19.52;;
31073;SDS011;17730;53.552;9.940;2022-11-15T06:49:25;37.50;;;19.52;;
31073;SDS011;17730;53.552;9.940;2022-11-15T06:51:51;35.35;;;19.80;;
31073;SDS011;17730;53.552;9.940;2022-11-15T06:54:16;33.20;;;18.95;;
31073;SDS011;17730;53.552;9.940;2022-11-15T06:56:42;36.28;;;19.83;;
31073;SDS011;17730;53.552;9.940;2022-11-15T06:59:07;33.90;;;18.92;;
31073;SDS011;17730;53.552;9.940;2022-11-15T07:01:33;31.70;;;18.85;;
31073;SDS011;17730;53.552;9.940;2022-11-15T07:03:58;31.55;;;19.13;;
31073;SDS011;17730;53.552;9.940;2022-11-15T07:06:24;35.42;;;19.40;;
31073;SDS011;17730;53.552;9.940;2022-11-15T07:08:50;32.83;;;19.25;;
31073;SDS011;17730;53.552;9.940;2022-11-15T07:11:15;36.60;;;19.65;;
31073;SDS011;17730;53.552;9.940;2022-11-15T07:13:41;30.65;;;18.75;;
31073;SDS011;17730;53.552;9.940;2022-11-15T07:16:08;32.88;;;18.77;;
31073;SDS011;17730;53.552;9.940;2022-11-15T07:18:35;33.03;;;19.10;;
31073;SDS011;17730;53.552;9.940;2022-11-15T07:21:05;33.80;;;18.63;;
31073;SDS011;17730;53.552;9.940;2022-11-15T07:23:32;36.47;;;18.43;;
31073;SDS011;17730;53.552;9.940;2022-11-15T07:26:00;37.60;;;19.65;;
31073;SDS011;17730;53.552;9.940;2022-11-15T07:28:32;38.08;;;19.65;;
31073;SDS011;17730;53.552;9.940;2022-11-15T07:30:57;32.70;;;19.05;;
31073;SDS011;17730;53.552;9.940;2022-11-15T07:33:23;36.00;;;18.83;;
31073;SDS011;17730;53.552;9.940;2022-11-15T07:35:49;33.13;;;19.10;;
31073;SDS011;17730;53.552;9.940;2022-11-15T07:38:15;34.17;;;19.10;;
31073;SDS011;17730;53.552;9.940;2022-11-15T07:40:44;33.30;;;19.27;;
31073;SDS011;17730;53.552;9.940;2022-11-15T07:43:10;36.22;;;19.60;;
31073;SDS011;17730;53.552;9.940;2022-11-15T07:45:39;34.47;;;18.77;;
31073;SDS011;17730;53.552;9.940;2022-11-15T07:48:10;32.25;;;19.63;;
31073;SDS011;17730;53.552;9.940;2022-11-15T07:50:36;33.63;;;19.48;;
31073;SDS011;17730;53.552;9.940;2022-11-15T07:53:05;30.45;;;18.42;;
31073;SDS011;17730;53.552;9.940;2022-11-15T07:55:31;29.75;;;17.58;;
31073;SDS011;17730;53.552;9.940;2022-11-15T07:58:00;31.83;;;18.10;;
31073;SDS011;17730;53.552;9.940;2022-11-15T08:00:27;29.80;;;17.73;;
31073;SDS011;17730;53.552;9.940;2022-11-15T08:03:00;34.08;;;19.08;;
31073;SDS011;17730;53.552;9.940;2022-11-15T08:05:36;34.75;;;17.48;;
31073;SDS011;17730;53.552;9.940;2022-11-15T08:08:04;33.90;;;19.98;;
31073;SDS011;17730;53.552;9.940;2022-11-15T08:10:30;34.20;;;18.42;;
31073;SDS011;17730;53.552;9.940;2022-11-15T08:13:03;38.08;;;19.17;;
31073;SDS011;17730;53.552;9.940;2022-11-15T08:15:31;35.97;;;19.02;;
31073;SDS011;17730;53.552;9.940;2022-11-15T08:17:58;33.03;;;19.23;;
31073;SDS011;17730;53.552;9.940;2022-11-15T08:20:26;39.55;;;19.98;;
31073;SDS011;17730;53.552;9.940;2022-11-15T08:22:56;33.67;;;19.25;;
31073;SDS011;17730;53.552;9.940;2022-11-15T08:25:22;45.17;;;21.52;;
31073;SDS011;17730;53.552;9.940;2022-11-15T08:27:52;38.33;;;20.02;;
31073;SDS011;17730;53.552;9.940;2022-11-15T08:30:18;42.83;;;20.20;;
31073;SDS011;17730;53.552;9.940;2022-11-15T08:32:44;37.30;;;19.98;;
31073;SDS011;17730;53.552;9.940;2022-11-15T08:35:10;40.30;;;20.00;;
31073;SDS011;17730;53.552;9.940;2022-11-15T08:37:36;35.95;;;19.70;;
31073;SDS011;17730;53.552;9.940;2022-11-15T08:40:02;31.35;;;18.63;;
31073;SDS011;17730;53.552;9.940;2022-11-15T08:42:32;35.50;;;19.92;;
31073;SDS011;17730;53.552;9.940;2022-11-15T08:45:01;34.35;;;18.50;;
31073;SDS011;17730;53.552;9.940;2022-11-15T08:47:27;36.30;;;19.35;;
31073;SDS011;17730;53.552;9.940;2022-11-15T08:50:04;36.20;;;18.60;;
31073;SDS011;17730;53.552;9.940;2022-11-15T08:52:30;35.80;;;18.70;;
31073;SDS011;17730;53.552;9.940;2022-11-15T08:54:56;34.13;;;19.67;;
31073;SDS011;17730;53.552;9.940;2022-11-15T08:57:22;34.17;;;18.88;;
31073;SDS011;17730;53.552;9.940;2022-11-15T08:59:51;36.78;;;19.40;;
31073;SDS011;17730;53.552;9.940;2022-11-15T09:02:17;36.90;;;18.25;;
31073;SDS011;17730;53.552;9.940;2022-11-15T09:04:43;30.20;;;16.67;;
31073;SDS011;17730;53.552;9.940;2022-11-15T09:07:12;34.38;;;17.02;;
31073;SDS011;17730;53.552;9.940;2022-11-15T09:09:39;30.67;;;17.95;;
31073;SDS011;17730;53.552;9.940;2022-11-15T09:12:05;36.85;;;19.00;;
31073;SDS011;17730;53.552;9.940;2022-11-15T09:14:31;30.77;;;17.45;;
31073;SDS011;17730;53.552;9.940;2022-11-15T09:16:57;32.05;;;17.90;;
31073;SDS011;17730;53.552;9.940;2022-11-15T09:19:23;36.30;;;17.77;;
31073;SDS011;17730;53.552;9.940;2022-11-15T09:21:49;37.97;;;18.98;;
31073;SDS011;17730;53.552;9.940;2022-11-15T09:24:15;31.50;;;19.00;;
31073;SDS011;17730;53.552;9.940;2022-11-15T09:26:42;44.03;;;18.60;;
31073;SDS011;17730;53.552;9.940;2022-11-15T09:29:08;33.30;;;18.13;;
31073;SDS011;17730;53.552;9.940;2022-11-15T09:31:34;41.97;;;18.08;;
31073;SDS011;17730;53.552;9.940;2022-11-15T09:34:00;36.95;;;18.88;;
31073;SDS011;17730;53.552;9.940;2022-11-15T09:36:25;32.35;;;17.33;;
31073;SDS011;17730;53.552;9.940;2022-11-15T09:38:51;37.38;;;19.27;;
31073;SDS011;17730;53.552;9.940;2022-11-15T09:49:18;37.97;;;18.20;;
31073;SDS011;17730;53.552;9.940;2022-11-15T09:51:45;33.72;;;16.77;;
31073;SDS011;17730;53.552;9.940;2022-11-15T09:54:34;37.47;;;18.20;;
31073;SDS011;17730;53.552;9.940;2022-11-15T09:57:11;39.72;;;16.98;;
31073;SDS011;17730;53.552;9.940;2022-11-15T09:59:58;40.05;;;18.38;;
31073;SDS011;17730;53.552;9.940;2022-11-15T10:05:03;36.30;;;18.80;;
31073;SDS011;17730;53.552;9.940;2022-11-15T10:07:54;41.20;;;17.95;;
31073;SDS011;17730;53.552;9.940;2022-11-15T10:10:29;47.78;;;19.75;;
31073;SDS011;17730;53.552;9.940;2022-11-15T10:12:56;37.35;;;17.88;;
31073;SDS011;17730;53.552;9.940;2022-11-15T10:15:23;39.63;;;18.20;;
31073;SDS011;17730;53.552;9.940;2022-11-15T10:20:26;28.90;;;14.93;;
31073;SDS011;17730;53.552;9.940;2022-11-15T10:22:55;34.72;;;17.45;;
31073;SDS011;17730;53.552;9.940;2022-11-15T10:25:26;41.60;;;18.50;;
31073;SDS011;17730;53.552;9.940;2022-11-15T10:28:01;31.77;;;16.13;;
31073;SDS011;17730;53.552;9.940;2022-11-15T10:30:39;39.00;;;20.17;;
31073;SDS011;17730;53.552;9.940;2022-11-15T10:33:11;37.28;;;16.92;;
31073;SDS011;17730;53.552;9.940;2022-11-15T10:41:30;39.42;;;17.10;;
31073;SDS011;17730;53.552;9.940;2022-11-15T10:46:35;35.88;;;17.73;;
31073;SDS011;17730;53.552;9.940;2022-11-15T10:49:11;29.00;;;17.60;;
31073;SDS011;17730;53.552;9.940;2022-11-15T10:51:49;42.28;;;19.17;;
31073;SDS011;17730;53.552;9.940;2022-11-15T10:54:30;38.00;;;15.73;;
31073;SDS011;17730;53.552;9.940;2022-11-15T10:57:16;29.30;;;15.65;;
31073;SDS011;17730;53.552;9.940;2022-11-15T11:00:27;31.65;;;16.27;;
31073;SDS011;17730;53.552;9.940;2022-11-15T11:02:59;30.67;;;16.15;;
31073;SDS011;17730;53.552;9.940;2022-11-15T11:05:28;31.80;;;17.55;;
31073;SDS011;17730;53.552;9.940;2022-11-15T11:10:34;26.00;;;16.02;;
31073;SDS011;17730;53.552;9.940;2022-11-15T11:13:22;40.55;;;17.77;;
31073;SDS011;17730;53.552;9.940;2022-11-15T11:15:49;36.15;;;15.85;;
31073;SDS011;17730;53.552;9.940;2022-11-15T11:18:28;35.10;;;16.88;;
31073;SDS011;17730;53.552;9.940;2022-11-15T11:21:03;38.42;;;16.48;;
31073;SDS011;17730;53.552;9.940;2022-11-15T11:23:58;29.83;;;16.02;;
31073;SDS011;17730;53.552;9.940;2022-11-15T11:26:35;25.52;;;15.75;;
31073;SDS011;17730;53.552;9.940;2022-11-15T11:32:39;28.38;;;13.93;;
31073;SDS011;17730;53.552;9.940;2022-11-15T11:40:44;29.45;;;16.02;;
31073;SDS011;17730;53.552;9.940;2022-11-15T11:48:42;29.63;;;13.98;;
31073;SDS011;17730;53.552;9.940;2022-11-15T11:53:55;26.65;;;15.05;;
31073;SDS011;17730;53.552;9.940;2022-11-15T11:56:31;36.00;;;16.38;;
31073;SDS011;17730;53.552;9.940;2022-11-15T12:01:38;23.83;;;14.52;;
31073;SDS011;17730;53.552;9.940;2022-11-15T12:04:15;25.67;;;14.00;;
31073;SDS011;17730;53.552;9.940;2022-11-15T12:06:52;26.17;;;13.68;;
31073;SDS011;17730;53.552;9.940;2022-11-15T12:14:28;23.15;;;12.68;;
31073;SDS011;17730;53.552;9.940;2022-11-15T12:16:59;26.40;;;12.20;;
31073;SDS011;17730;53.552;9.940;2022-11-15T12:19:25;29.65;;;14.20;;
31073;SDS011;17730;53.552;9.940;2022-11-15T12:21:54;28.73;;;13.40;;
31073;SDS011;17730;53.552;9.940;2022-11-15T12:24:37;22.75;;;13.45;;
31073;SDS011;17730;53.552;9.940;2022-11-15T12:29:45;24.58;;;13.45;;
31073;SDS011;17730;53.552;9.940;2022-11-15T12:32:28;21.52;;;12.50;;
31073;SDS011;17730;53.552;9.940;2022-11-15T12:34:58;20.85;;;10.57;;
31073;SDS011;17730;53.552;9.940;2022-11-15T12:42:39;20.23;;;12.68;;
31073;SDS011;17730;53.552;9.940;2022-11-15T12:45:29;17.65;;;12.40;;
31073;SDS011;17730;53.552;9.940;2022-11-15T12:47:56;18.33;;;11.65;;
31073;SDS011;17730;53.552;9.940;2022-11-15T13:06:56;17.15;;;12.32;;
31073;SDS011;17730;53.552;9.940;2022-11-15T13:12:01;19.52;;;11.43;;
31073;SDS011;17730;53.552;9.940;2022-11-15T13:19:42;18.63;;;11.13;;
31073;SDS011;17730;53.552;9.940;2022-11-15T13:22:11;20.48;;;12.07;;
31073;SDS011;17730;53.552;9.940;2022-11-15T13:24:55;25.40;;;12.80;;
31073;SDS011;17730;53.552;9.940;2022-11-15T13:27:21;21.58;;;11.35;;
31073;SDS011;17730;53.552;9.940;2022-11-15T13:29:47;24.23;;;12.50;;
31073;SDS011;17730;53.552;9.940;2022-11-15T13:32:13;25.67;;;13.50;;
31073;SDS011;17730;53.552;9.940;2022-11-15T13:34:49;22.33;;;11.90;;
31073;SDS011;17730;53.552;9.940;2022-11-15T13:39:47;29.00;;;12.18;;
31073;SDS011;17730;53.552;9.940;2022-11-15T13:42:17;21.50;;;12.68;;
31073;SDS011;17730;53.552;9.940;2022-11-15T13:44:57;24.85;;;11.65;;
31073;SDS011;17730;53.552;9.940;2022-11-15T13:47:26;19.63;;;12.15;;
31073;SDS011;17730;53.552;9.940;2022-11-15T13:49:53;21.65;;;10.18;;
31073;SDS011;17730;53.552;9.940;2022-11-15T13:52:22;22.52;;;12.13;;
31073;SDS011;17730;53.552;9.940;2022-11-15T13:55:01;17.92;;;10.95;;
31073;SDS011;17730;53.552;9.940;2022-11-15T13:57:43;23.60;;;11.93;;
31073;SDS011;17730;53.552;9.940;2022-11-15T14:06:09;22.10;;;10.05;;
31073;SDS011;17730;53.552;9.940;2022-11-15T14:08:40;19.63;;;10.90;;
31073;SDS011;17730;53.552;9.940;2022-11-15T14:11:26;20.27;;;10.18;;
31073;SDS011;17730;53.552;9.940;2022-11-15T14:16:34;17.60;;;10.18;;
31073;SDS011;17730;53.552;9.940;2022-11-15T14:19:02;23.67;;;11.93;;
31073;SDS011;17730;53.552;9.940;2022-11-15T14:21:30;24.38;;;11.75;;
31073;SDS011;17730;53.552;9.940;2022-11-15T14:26:44;25.27;;;11.07;;
31073;SDS011;17730;53.552;9.940;2022-11-15T14:29:23;23.25;;;13.35;;
31073;SDS011;17730;53.552;9.940;2022-11-15T14:31:53;22.38;;;11.68;;
31073;SDS011;17730;53.552;9.940;2022-11-15T14:34:31;23.17;;;12.63;;
31073;SDS011;17730;53.552;9.940;2022-11-15T14:36:57;20.67;;;11.40;;
31073;SDS011;17730;53.552;9.940;2022-11-15T14:39:23;20.35;;;11.10;;
31073;SDS011;17730;53.552;9.940;2022-11-15T14:41:50;18.25;;;11.02;;
31073;SDS011;17730;53.552;9.940;2022-11-15T14:44:15;21.75;;;11.45;;
31073;SDS011;17730;53.552;9.940;2022-11-15T14:46:43;19.55;;;11.30;;
31073;SDS011;17730;53.552;9.940;2022-11-15T14:49:09;26.45;;;11.63;;
31073;SDS011;17730;53.552;9.940;2022-11-15T14:51:35;20.80;;;11.82;;
31073;SDS011;17730;53.552;9.940;2022-11-15T14:54:00;25.55;;;12.90;;
31073;SDS011;17730;53.552;9.940;2022-11-15T14:56:26;21.15;;;11.50;;
31073;SDS011;17730;53.552;9.940;2022-11-15T14:58:52;24.48;;;12.43;;
31073;SDS011;17730;53.552;9.940;2022-11-15T15:01:21;18.85;;;10.70;;
31073;SDS011;17730;53.552;9.940;2022-11-15T15:03:51;17.17;;;10.50;;
31073;SDS011;17730;53.552;9.940;2022-11-15T15:06:19;20.10;;;10.57;;
31073;SDS011;17730;53.552;9.940;2022-11-15T15:08:45;23.55;;;11.40;;
31073;SDS011;17730;53.552;9.940;2022-11-15T15:11:14;20.63;;;12.10;;
31073;SDS011;17730;53.552;9.940;2022-11-15T15:13:44;21.42;;;11.25;;
31073;SDS011;17730;53.552;9.940;2022-11-15T15:16:09;25.60;;;12.05;;
31073;SDS011;17730;53.552;9.940;2022-11-15T15:18:35;24.50;;;12.52;;
31073;SDS011;17730;53.552;9.940;2022-11-15T15:21:00;23.48;;;11.55;;
31073;SDS011;17730;53.552;9.940;2022-11-15T15:23:31;27.52;;;12.25;;
31073;SDS011;17730;53.552;9.940;2022-11-15T15:25:57;26.67;;;11.07;;
31073;SDS011;17730;53.552;9.940;2022-11-15T15:28:23;19.20;;;11.13;;
31073;SDS011;17730;53.552;9.940;2022-11-15T15:30:49;19.98;;;10.90;;
31073;SDS011;17730;53.552;9.940;2022-11-15T15:33:15;21.65;;;11.55;;
31073;SDS011;17730;53.552;9.940;2022-11-15T15:35:41;23.98;;;11.57;;
31073;SDS011;17730;53.552;9.940;2022-11-15T15:38:09;25.08;;;11.73;;
31073;SDS011;17730;53.552;9.940;2022-11-15T15:40:37;23.20;;;13.32;;
31073;SDS011;17730;53.552;9.940;2022-11-15T15:43:02;25.20;;;12.98;;
31073;SDS011;17730;53.552;9.940;2022-11-15T15:45:28;23.52;;;12.75;;
31073;SDS011;17730;53.552;9.940;2022-11-15T15:47:55;27.60;;;12.80;;
31073;SDS011;17730;53.552;9.940;2022-11-15T15:52:58;21.75;;;12.00;;
31073;SDS011;17730;53.552;9.940;2022-11-15T15:55:25;24.85;;;13.75;;
31073;SDS011;17730;53.552;9.940;2022-11-15T15:57:53;22.83;;;13.65;;
31073;SDS011;17730;53.552;9.940;2022-11-15T16:00:19;32.00;;;16.67;;
31073;SDS011;17730;53.552;9.940;2022-11-15T16:02:48;24.73;;;12.80;;
31073;SDS011;17730;53.552;9.940;2022-11-15T16:05:14;30.30;;;13.82;;
31073;SDS011;17730;53.552;9.940;2022-11-15T16:07:39;24.95;;;14.55;;
31073;SDS011;17730;53.552;9.940;2022-11-15T16:10:27;27.73;;;14.68;;
31073;SDS011;17730;53.552;9.940;2022-11-15T16:12:55;28.90;;;14.15;;
31073;SDS011;17730;53.552;9.940;2022-11-15T16:15:22;25.65;;;12.43;;
31073;SDS011;17730;53.552;9.940;2022-11-15T16:17:50;29.80;;;13.50;;
31073;SDS011;17730;53.552;9.940;2022-11-15T16:20:23;26.30;;;12.83;;
31073;SDS011;17730;53.552;9.940;2022-11-15T16:22:49;25.27;;;12.80;;
31073;SDS011;17730;53.552;9.940;2022-11-15T16:25:14;26.92;;;13.07;;
31073;SDS011;17730;53.552;9.940;2022-11-15T16:27:40;21.45;;;12.82;;
31073;SDS011;17730;53.552;9.940;2022-11-15T16:30:17;25.85;;;11.85;;
31073;SDS011;17730;53.552;9.940;2022-11-15T16:32:44;20.40;;;11.55;;
31073;SDS011;17730;53.552;9.940;2022-11-15T16:35:12;20.15;;;12.65;;
31073;SDS011;17730;53.552;9.940;2022-11-15T16:37:41;17.17;;;10.77;;